createdAt,value
2018-11-20T00:02:46.493Z,100656.45
2018-11-20T00:05:55.346Z,100643.94
2018-11-20T00:09:01.756Z,100622.96
2018-11-20T00:12:29.224Z,100618.00
2018-11-20T00:15:30.880Z,100619.86
2018-11-20T00:18:38.326Z,100624.64
2018-11-20T00:21:40.176Z,100617.16
2018-11-20T00:24:48.232Z,100623.66
2018-11-20T00:27:49.206Z,100619.48
2018-11-20T00:30:58.718Z,100613.63
2018-11-20T00:34:05.646Z,100615.27
2018-11-20T00:37:14.884Z,100598.48
2018-11-20T00:40:43.702Z,100611.03
2018-11-20T00:43:48.252Z,100616.00
2018-11-20T00:46:56.699Z,100609.73
2018-11-20T00:50:07.406Z,100624.53
2018-11-20T00:53:35.354Z,100620.13
2018-11-20T00:56:57.204Z,100606.99
2018-11-20T01:00:06.452Z,100603.65
2018-11-20T01:03:08.608Z,100608.16
2018-11-20T01:06:08.495Z,100596.64
2018-11-20T01:09:05.682Z,100609.03
2018-11-20T01:12:13.356Z,100607.70
2018-11-20T01:15:16.822Z,100594.91
2018-11-20T01:18:24.545Z,100593.28
2018-11-20T01:21:32.828Z,100586.77
2018-11-20T01:25:00.053Z,100583.59
2018-11-20T01:28:01.555Z,100569.00
2018-11-20T01:31:09.600Z,100572.83
2018-11-20T01:34:10.811Z,100571.45
2018-11-20T01:37:18.839Z,100573.90
2018-11-20T01:40:20.411Z,100562.00
2018-11-20T01:43:28.763Z,100548.65
2018-11-20T01:46:28.729Z,100550.68
2018-11-20T01:49:36.567Z,100530.84
2018-11-20T01:52:37.697Z,100526.25
2018-11-20T01:55:46.359Z,100519.55
2018-11-20T01:58:47.943Z,100512.72
2018-11-20T02:01:56.950Z,100505.10
2018-11-20T02:05:06.336Z,100497.94
2018-11-20T02:08:15.924Z,100485.95
2018-11-20T02:11:22.540Z,100487.80
2018-11-20T02:14:33.940Z,100483.41
2018-11-20T02:18:05.880Z,100483.58
2018-11-20T02:20:57.505Z,100480.60
2018-11-20T02:24:06.504Z,100484.45
2018-11-20T02:27:09.690Z,100483.12
2018-11-20T02:30:12.554Z,100481.80
2018-11-20T02:33:40.423Z,100481.75
2018-11-20T02:36:46.340Z,100466.16
2018-11-20T02:40:13.961Z,100471.98
2018-11-20T02:43:14.753Z,100442.18
2018-11-20T02:46:24.957Z,100451.70
2018-11-20T02:49:25.303Z,100466.30
2018-11-20T02:52:34.131Z,100474.48
2018-11-20T02:55:24.824Z,100480.97
2018-11-20T02:58:33.661Z,100483.80
2018-11-20T03:01:34.775Z,100489.59
2018-11-20T03:04:32.215Z,100485.78
2018-11-20T03:07:40.896Z,100489.80
2018-11-20T03:10:48.903Z,100496.77
2018-11-20T03:13:48.839Z,100486.97
2018-11-20T03:16:56.625Z,100488.67
2018-11-20T03:19:58.229Z,100484.64
2018-11-20T03:23:05.715Z,100489.49
2018-11-20T03:26:09.542Z,100485.01
2018-11-20T03:29:21.413Z,100488.47
2018-11-20T03:32:20.043Z,100491.81
2018-11-20T03:35:28.537Z,100472.86
2018-11-20T03:38:24.837Z,100475.19
2018-11-20T03:41:24.585Z,100477.17
2018-11-20T03:44:25.635Z,100462.89
2018-11-20T03:47:33.729Z,100470.34
2018-11-20T03:50:42.154Z,100463.70
2018-11-20T03:53:43.153Z,100454.74
2018-11-20T03:57:14.130Z,100442.08
2018-11-20T04:00:17.277Z,100464.69
2018-11-20T04:03:26.800Z,100471.03
2018-11-20T04:06:29.175Z,100466.38
2018-11-20T04:09:57.422Z,100456.24
2018-11-20T04:12:59.770Z,100465.55
2018-11-20T04:16:08.995Z,100451.58
2018-11-20T04:19:09.614Z,100441.09
2018-11-20T04:22:37.678Z,100447.91
2018-11-20T04:25:26.534Z,100440.26
2018-11-20T04:28:35.374Z,100436.75
2018-11-20T04:35:18.120Z,100431.59
2018-11-20T04:38:34.960Z,100434.78
2018-11-20T04:41:34.373Z,100432.09
2018-11-20T04:44:42.884Z,100437.94
2018-11-20T04:47:38.854Z,100437.75
2018-11-20T04:51:06.274Z,100448.73
2018-11-20T04:53:59.531Z,100435.42
2018-11-20T04:57:07.752Z,100440.27
2018-11-20T05:00:08.673Z,100443.09
2018-11-20T05:03:17.935Z,100444.42
2018-11-20T05:06:23.231Z,100436.92
2018-11-20T05:09:34.025Z,100437.42
2018-11-20T05:12:41.058Z,100434.60
2018-11-20T05:15:42.855Z,100421.80
2018-11-20T05:19:12.367Z,100413.16
2018-11-20T05:22:17.025Z,100434.77
2018-11-20T05:25:45.261Z,100429.63
2018-11-20T05:28:47.959Z,100425.45
2018-11-20T05:31:56.995Z,100437.11
2018-11-20T05:35:08.269Z,100422.27
2018-11-20T05:38:19.425Z,100428.10
2018-11-20T05:41:24.351Z,100409.83
2018-11-20T05:44:53.104Z,100433.44
2018-11-20T05:47:43.175Z,100393.86
2018-11-20T05:50:52.371Z,100401.33
2018-11-20T05:53:57.071Z,100399.84
2018-11-20T05:57:01.360Z,100403.31
2018-11-20T06:00:09.657Z,100373.08
2018-11-20T06:03:12.058Z,100406.64
2018-11-20T06:06:21.090Z,100409.97
2018-11-20T06:09:24.220Z,100406.64
2018-11-20T06:12:32.836Z,100401.49
2018-11-20T06:15:33.916Z,100404.66
2018-11-20T06:18:41.635Z,100415.64
2018-11-20T06:21:46.319Z,100406.16
2018-11-20T06:25:19.258Z,100415.47
2018-11-20T06:28:20.342Z,100417.45
2018-11-20T06:32:18.132Z,100406.66
2018-11-20T06:41:30.501Z,100412.80
2018-11-20T06:44:31.317Z,100402.00
2018-11-20T06:47:39.324Z,100389.52
2018-11-20T06:50:39.442Z,100391.02
2018-11-20T06:53:39.921Z,100391.67
2018-11-20T06:57:07.241Z,100400.48
2018-11-20T06:59:55.691Z,100400.63
2018-11-20T07:02:44.517Z,100395.97
2018-11-20T07:05:32.934Z,100404.95
2018-11-20T07:08:36.046Z,100398.15
2018-11-20T07:11:43.490Z,100395.98
2018-11-20T07:14:46.939Z,100417.75
2018-11-20T07:17:47.498Z,100401.95
2018-11-20T07:20:56.331Z,100399.16
2018-11-20T07:23:57.821Z,100396.33
2018-11-20T07:27:05.289Z,100399.36
2018-11-20T07:30:13.052Z,100388.70
2018-11-20T07:33:21.049Z,100390.36
2018-11-20T07:36:25.695Z,100385.22
2018-11-20T07:39:26.627Z,100386.02
2018-11-20T07:42:34.281Z,100387.20
2018-11-20T07:45:35.482Z,100382.19
2018-11-20T07:48:36.000Z,100377.53
2018-11-20T07:51:39.227Z,100374.02
2018-11-20T07:54:40.389Z,100371.34
2018-11-20T07:57:48.295Z,100377.66
2018-11-20T08:00:42.564Z,100369.33
2018-11-20T08:03:51.422Z,100377.66
2018-11-20T08:06:54.346Z,100374.53
2018-11-20T08:10:03.112Z,100373.48
2018-11-20T08:13:30.632Z,100384.66
2018-11-20T08:16:27.747Z,100379.31
2018-11-20T08:19:27.264Z,100364.17
2018-11-20T08:22:34.113Z,100358.60
2018-11-20T08:25:42.268Z,100358.11
2018-11-20T08:28:48.548Z,100368.59
2018-11-20T08:31:56.150Z,100369.27
2018-11-20T08:35:03.694Z,100356.91
2018-11-20T08:38:30.673Z,100358.60
2018-11-20T08:41:37.530Z,100367.61
2018-11-20T08:44:45.550Z,100358.95
2018-11-20T08:47:46.267Z,100362.95
2018-11-20T08:50:54.305Z,100362.14
2018-11-20T08:53:42.549Z,100354.01
2018-11-20T08:56:49.240Z,100364.00
2018-11-20T08:59:49.910Z,100351.17
2018-11-20T09:02:57.972Z,100353.03
2018-11-20T09:05:49.918Z,100350.82
2018-11-20T09:08:57.762Z,100344.19
2018-11-20T09:11:58.803Z,100334.55
2018-11-20T09:15:06.675Z,100319.03
2018-11-20T09:17:55.233Z,100319.91
2018-11-20T09:21:02.687Z,100329.92
2018-11-20T09:24:03.529Z,100316.72
2018-11-20T09:27:11.356Z,100323.87
2018-11-20T09:30:11.624Z,100319.03
2018-11-20T09:33:19.342Z,100314.27
2018-11-20T09:36:22.631Z,100321.78
2018-11-20T09:39:20.852Z,100325.59
2018-11-20T09:42:21.677Z,100321.55
2018-11-20T09:45:47.981Z,100324.34
2018-11-20T09:48:55.645Z,100317.63
2018-11-20T09:51:49.859Z,100333.13
2018-11-20T09:54:57.687Z,100323.98
2018-11-20T09:57:58.737Z,100318.75
2018-11-20T10:01:06.591Z,100319.42
2018-11-20T10:04:12.451Z,100312.95
2018-11-20T10:07:20.177Z,100318.89
2018-11-20T10:10:27.993Z,100310.38
2018-11-20T10:13:29.545Z,100288.83
2018-11-20T10:16:37.358Z,100292.35
2018-11-20T10:19:38.347Z,100306.29
2018-11-20T10:22:38.323Z,100293.08
2018-11-20T10:25:40.147Z,100289.83
2018-11-20T10:28:40.670Z,100284.37
2018-11-20T10:31:48.918Z,100286.30
2018-11-20T10:34:50.121Z,100281.83
2018-11-20T10:37:56.208Z,100286.96
2018-11-20T10:41:04.216Z,100280.38
2018-11-20T10:44:05.596Z,100274.60
2018-11-20T10:47:13.058Z,100265.23
2018-11-20T10:50:13.494Z,100257.94
2018-11-20T10:53:20.970Z,100266.55
2018-11-20T10:56:21.090Z,100257.05
2018-11-20T10:59:28.645Z,100263.89
2018-11-20T11:02:36.042Z,100256.56
2018-11-20T11:06:04.192Z,100266.74
2018-11-20T11:09:31.280Z,100273.41
2018-11-20T11:12:38.955Z,100267.95
2018-11-20T11:16:05.785Z,100274.61
2018-11-20T11:19:08.998Z,100273.45
2018-11-20T11:22:16.816Z,100264.30
2018-11-20T11:25:11.446Z,100261.45
2018-11-20T11:28:17.328Z,100266.74
2018-11-20T11:34:07.239Z,100268.25
2018-11-20T11:37:08.816Z,100259.66
2018-11-20T11:43:21.318Z,100246.92
2018-11-20T11:46:24.960Z,100261.22
2018-11-20T11:49:32.429Z,100248.91
2018-11-20T11:52:40.169Z,100238.22
2018-11-20T11:59:08.045Z,100232.20
2018-11-20T12:05:16.827Z,100232.45
2018-11-20T12:08:25.625Z,100239.91
2018-11-20T12:11:26.677Z,100215.80
2018-11-20T12:14:34.342Z,100209.02
2018-11-20T12:17:34.757Z,100194.44
2018-11-20T12:20:43.391Z,100193.82
2018-11-20T12:23:49.461Z,100197.58
2018-11-20T12:26:57.500Z,100188.36
2018-11-20T12:29:57.720Z,100174.50
2018-11-20T12:33:05.184Z,100171.80
2018-11-20T12:36:12.300Z,100161.00
2018-11-20T12:39:11.238Z,100168.32
2018-11-20T12:42:12.828Z,100163.13
2018-11-20T12:45:13.576Z,100142.84
2018-11-20T12:48:22.361Z,100146.72
2018-11-20T12:51:08.948Z,100139.88
2018-11-20T12:57:25.438Z,100137.34
2018-11-20T13:00:32.902Z,100138.77
2018-11-20T13:03:33.414Z,100132.37
2018-11-20T13:06:41.108Z,100138.38
2018-11-20T13:09:44.346Z,100131.02
2018-11-20T13:12:51.798Z,100133.90
2018-11-20T13:15:53.456Z,100146.91
2018-11-20T13:19:00.243Z,100146.92
2018-11-20T13:22:01.018Z,100132.45
2018-11-20T13:25:09.520Z,100138.31
2018-11-20T13:28:09.856Z,100138.49
2018-11-20T13:31:17.522Z,100138.02
2018-11-20T13:34:20.891Z,100123.55
2018-11-20T13:37:26.426Z,100129.08
2018-11-20T13:40:39.266Z,100146.61
2018-11-20T13:43:46.728Z,100146.17
2018-11-20T13:46:41.927Z,100147.90
2018-11-20T13:50:08.976Z,100150.42
2018-11-20T13:53:08.977Z,100156.55
2018-11-20T13:56:17.008Z,100161.20
2018-11-20T13:59:21.560Z,100168.97
2018-11-20T14:02:22.239Z,100174.97
2018-11-20T14:05:31.197Z,100162.05
2018-11-20T14:08:33.377Z,100157.56
2018-11-20T14:11:36.448Z,100152.77
2018-11-20T14:14:28.912Z,100161.27
2018-11-20T14:17:43.236Z,100171.79
2018-11-20T14:20:51.333Z,100156.98
2018-11-20T14:23:51.399Z,100159.66
2018-11-20T14:26:59.110Z,100152.37
2018-11-20T14:29:59.598Z,100142.91
2018-11-20T14:33:07.281Z,100137.78
2018-11-20T14:36:09.841Z,100146.27
2018-11-20T14:39:14.668Z,100143.08
2018-11-20T14:42:15.022Z,100134.44
2018-11-20T14:45:17.054Z,100144.41
2018-11-20T14:48:24.766Z,100141.61
2018-11-20T14:51:23.424Z,100141.92
2018-11-20T14:54:30.929Z,100158.37
2018-11-20T14:57:31.068Z,100170.98
2018-11-20T15:00:38.542Z,100166.18
2018-11-20T15:03:41.596Z,100155.37
2018-11-20T15:06:49.296Z,100164.52
2018-11-20T15:09:48.802Z,100163.02
2018-11-20T15:12:56.339Z,100159.69
2018-11-20T15:15:57.200Z,100154.38
2018-11-20T15:19:04.711Z,100159.84
2018-11-20T15:22:07.544Z,100164.02
2018-11-20T15:25:15.209Z,100160.69
2018-11-20T15:28:15.614Z,100162.17
2018-11-20T15:31:23.233Z,100168.98
2018-11-20T15:34:20.962Z,100172.99
2018-11-20T15:37:30.911Z,100168.81
2018-11-20T15:40:31.375Z,100157.38
2018-11-20T15:43:38.819Z,100151.54
2018-11-20T15:46:44.853Z,100153.38
2018-11-20T15:49:52.725Z,100150.88
2018-11-20T15:52:53.669Z,100154.53
2018-11-20T15:55:52.881Z,100151.69
2018-11-20T15:58:53.658Z,100147.70
2018-11-20T16:02:01.338Z,100153.84
2018-11-20T16:05:07.765Z,100160.02
2018-11-20T16:08:16.057Z,100162.19
2018-11-20T16:11:23.962Z,100157.50
2018-11-20T16:14:24.779Z,100173.28
2018-11-20T16:17:32.329Z,100171.97
2018-11-20T16:20:27.693Z,100175.59
2018-11-20T16:23:35.445Z,100171.96
2018-11-20T16:26:45.359Z,100181.41
2018-11-20T16:29:41.461Z,100178.93
2018-11-20T16:35:37.404Z,100180.06
2018-11-20T16:38:39.317Z,100188.38
2018-11-20T16:41:46.951Z,100199.34
2018-11-20T16:44:42.735Z,100201.51
2018-11-20T16:47:40.766Z,100204.49
2018-11-20T16:50:44.529Z,100210.81
2018-11-20T16:53:52.198Z,100220.77
2018-11-20T16:56:55.871Z,100224.09
2018-11-20T17:00:03.714Z,100221.91
2018-11-20T17:06:16.635Z,100235.94
2018-11-20T17:09:17.327Z,100240.06
2018-11-20T17:12:15.771Z,100234.07
2018-11-20T17:15:25.598Z,100236.08
2018-11-20T17:18:33.680Z,100235.89
2018-11-20T17:21:34.530Z,100236.08
2018-11-20T17:24:43.611Z,100242.88
2018-11-20T17:27:44.604Z,100248.56
2018-11-20T17:30:54.404Z,100240.23
2018-11-20T17:33:57.675Z,100237.88
2018-11-20T17:37:05.345Z,100236.86
2018-11-20T17:40:04.983Z,100239.89
2018-11-20T17:43:12.686Z,100238.23
2018-11-20T17:46:13.539Z,100239.41
2018-11-20T17:49:21.238Z,100232.06
2018-11-20T17:52:19.585Z,100227.59
2018-11-20T17:55:27.767Z,100236.09
2018-11-20T17:58:28.729Z,100231.73
2018-11-20T18:01:36.672Z,100227.41
2018-11-20T18:04:36.803Z,100234.05
2018-11-20T18:07:43.734Z,100229.23
2018-11-20T18:10:51.819Z,100227.41
2018-11-20T18:13:43.290Z,100233.71
2018-11-20T18:16:51.115Z,100235.05
2018-11-20T18:19:50.983Z,100236.55
2018-11-20T18:23:17.828Z,100239.20
2018-11-20T18:26:17.860Z,100243.19
2018-11-20T18:29:25.691Z,100236.71
2018-11-20T18:32:33.557Z,100237.20
2018-11-20T18:35:32.542Z,100238.05
2018-11-20T18:38:40.549Z,100234.06
2018-11-20T18:41:48.205Z,100245.53
2018-11-20T18:44:56.046Z,100235.38
2018-11-20T18:48:02.092Z,100245.54
2018-11-20T18:51:09.554Z,100241.52
2018-11-20T18:54:10.383Z,100246.02
2018-11-20T18:57:17.898Z,100247.88
2018-11-20T19:00:19.324Z,100247.85
2018-11-20T19:03:18.428Z,100250.05
2018-11-20T19:06:19.341Z,100239.72
2018-11-20T19:09:28.204Z,100247.88
2018-11-20T19:12:27.386Z,100254.67
2018-11-20T19:15:35.687Z,100258.00
2018-11-20T19:18:43.723Z,100253.00
2018-11-20T19:21:51.981Z,100265.30
2018-11-20T19:24:52.537Z,100257.34
2018-11-20T19:28:01.036Z,100273.63
2018-11-20T19:31:01.753Z,100268.28
2018-11-20T19:34:11.016Z,100267.95
2018-11-20T19:37:13.611Z,100277.62
2018-11-20T19:40:14.967Z,100274.48
2018-11-20T19:43:42.629Z,100284.09
2018-11-20T19:46:43.807Z,100290.58
2018-11-20T19:49:52.042Z,100297.41
2018-11-20T19:52:47.844Z,100289.08
2018-11-20T19:55:56.097Z,100304.08
2018-11-20T19:58:56.122Z,100304.89
2018-11-20T20:02:04.551Z,100309.22
2018-11-20T20:05:07.463Z,100308.70
2018-11-20T20:08:15.587Z,100309.70
2018-11-20T20:11:11.845Z,100316.36
2018-11-20T20:14:22.355Z,100307.19
2018-11-20T20:17:25.182Z,100311.02
2018-11-20T20:20:35.723Z,100303.22
2018-11-20T20:23:35.790Z,100308.05
2018-11-20T20:27:22.036Z,100316.54
2018-11-20T20:30:30.748Z,100317.87
2018-11-20T20:33:39.387Z,100324.66
2018-11-20T20:36:46.508Z,100327.84
2018-11-20T20:39:54.598Z,100325.32
2018-11-20T20:42:57.075Z,100328.84
2018-11-20T20:46:04.550Z,100325.86
2018-11-20T20:49:08.500Z,100327.66
2018-11-20T20:52:16.223Z,100340.64
2018-11-20T20:55:24.846Z,100336.48
2018-11-20T20:58:52.657Z,100334.98
2018-11-20T21:01:55.413Z,100337.83
2018-11-20T21:05:03.637Z,100338.81
2018-11-20T21:08:02.692Z,100340.15
2018-11-20T21:11:10.943Z,100339.95
2018-11-20T21:14:11.297Z,100345.80
2018-11-20T21:17:18.776Z,100344.12
2018-11-20T21:20:19.402Z,100342.81
2018-11-20T21:23:46.462Z,100352.28
2018-11-20T21:26:47.593Z,100347.78
2018-11-20T21:29:56.013Z,100351.80
2018-11-20T21:32:55.912Z,100347.47
2018-11-20T21:35:56.660Z,100353.45
2018-11-20T21:39:04.740Z,100360.11
2018-11-20T21:42:11.427Z,100360.75
2018-11-20T21:45:19.513Z,100366.77
2018-11-20T21:48:20.515Z,100373.06
2018-11-20T21:51:28.449Z,100383.37
2018-11-20T21:54:28.895Z,100381.86
2018-11-20T21:57:37.497Z,100384.69
2018-11-20T22:00:57.955Z,100390.02
2018-11-20T22:03:58.937Z,100388.50
2018-11-20T22:07:06.400Z,100384.84
2018-11-20T22:10:13.895Z,100383.98
2018-11-20T22:14:00.093Z,100383.14
2018-11-20T22:17:00.523Z,100394.95
2018-11-20T22:20:08.219Z,100392.07
2018-11-20T22:23:08.213Z,100389.77
2018-11-20T22:26:15.896Z,100402.00
2018-11-20T22:29:15.747Z,100403.49
2018-11-20T22:32:23.424Z,100414.94
2018-11-20T22:35:23.797Z,100409.78
2018-11-20T22:38:20.590Z,100423.52
2018-11-20T22:41:28.189Z,100422.20
2018-11-20T22:44:29.016Z,100419.02
2018-11-20T22:47:36.645Z,100420.06
2018-11-20T22:50:39.411Z,100420.67
2018-11-20T22:53:47.860Z,100425.31
2018-11-20T22:56:55.511Z,100421.94
2018-11-20T23:00:02.962Z,100422.66
2018-11-20T23:03:10.636Z,100414.88
2018-11-20T23:06:06.591Z,100422.95
2018-11-20T23:08:47.532Z,100424.56
2018-11-20T23:11:36.014Z,100428.38
2018-11-20T23:14:17.478Z,100430.88
2018-11-20T23:17:05.940Z,100433.53
2018-11-20T23:19:47.255Z,100429.74
2018-11-20T23:22:36.128Z,100430.03
2018-11-20T23:25:17.862Z,100434.14
2018-11-20T23:28:06.368Z,100432.93
2018-11-20T23:31:13.201Z,100427.50
2018-11-20T23:37:19.794Z,100433.13
2018-11-20T23:40:09.125Z,100439.05
2018-11-20T23:42:50.634Z,100429.63
2018-11-20T23:45:38.913Z,100435.86
2018-11-20T23:48:21.798Z,100437.34
2018-11-20T23:51:10.115Z,100436.87
2018-11-20T23:53:51.157Z,100441.97
2018-11-20T23:56:39.424Z,100434.13
2018-11-20T23:59:20.361Z,100437.23
